sensor_id;sensor_type;location;lat;lon;timestamp;P1;durP1;ratioP1;P2;durP2;ratioP2
10096;SDS011;5087;42.662;23.466;2022-12-18T00:02:21;0.10;;;0.10;;
10096;SDS011;5087;42.662;23.466;2022-12-18T00:04:48;0.00;;;0.00;;
10096;SDS011;5087;42.662;23.466;2022-12-18T00:07:15;0.00;;;0.00;;
10096;SDS011;5087;42.662;23.466;2022-12-18T00:09:42;0.10;;;0.10;;
10096;SDS011;5087;42.662;23.466;2022-12-18T00:12:09;0.00;;;0.00;;
10096;SDS011;5087;42.662;23.466;2022-12-18T00:14:38;0.00;;;0.00;;
10096;SDS011;5087;42.662;23.466;2022-12-18T00:17:05;0.00;;;0.00;;
10096;SDS011;5087;42.662;23.466;2022-12-18T00:19:32;0.97;;;0.87;;
10096;SDS011;5087;42.662;23.466;2022-12-18T00:21:59;0.00;;;0.00;;
10096;SDS011;5087;42.662;23.466;2022-12-18T00:24:26;0.00;;;0.00;;
10096;SDS011;5087;42.662;23.466;2022-12-18T00:26:53;0.00;;;0.00;;
10096;SDS011;5087;42.662;23.466;2022-12-18T00:29:20;0.00;;;0.00;;
10096;SDS011;5087;42.662;23.466;2022-12-18T00:31:49;0.00;;;0.00;;
10096;SDS011;5087;42.662;23.466;2022-12-18T00:34:16;0.00;;;0.00;;
10096;SDS011;5087;42.662;23.466;2022-12-18T00:36:43;0.00;;;0.00;;
10096;SDS011;5087;42.662;23.466;2022-12-18T00:39:11;0.00;;;0.00;;
10096;SDS011;5087;42.662;23.466;2022-12-18T00:41:38;0.00;;;0.00;;
10096;SDS011;5087;42.662;23.466;2022-12-18T00:44:24;0.00;;;0.00;;
10096;SDS011;5087;42.662;23.466;2022-12-18T00:46:55;0.00;;;0.00;;
10096;SDS011;5087;42.662;23.466;2022-12-18T00:49:24;0.73;;;0.73;;
10096;SDS011;5087;42.662;23.466;2022-12-18T00:51:51;0.00;;;0.00;;
10096;SDS011;5087;42.662;23.466;2022-12-18T00:54:18;0.00;;;0.00;;
10096;SDS011;5087;42.662;23.466;2022-12-18T00:56:46;0.20;;;0.20;;
10096;SDS011;5087;42.662;23.466;2022-12-18T00:59:13;0.00;;;0.00;;
10096;SDS011;5087;42.662;23.466;2022-12-18T01:01:40;0.00;;;0.00;;
10096;SDS011;5087;42.662;23.466;2022-12-18T01:04:09;1.03;;;0.87;;
10096;SDS011;5087;42.662;23.466;2022-12-18T01:06:36;0.00;;;0.00;;
10096;SDS011;5087;42.662;23.466;2022-12-18T01:09:04;0.00;;;0.00;;
10096;SDS011;5087;42.662;23.466;2022-12-18T01:11:34;0.00;;;0.00;;
10096;SDS011;5087;42.662;23.466;2022-12-18T01:14:03;0.00;;;0.00;;
10096;SDS011;5087;42.662;23.466;2022-12-18T01:16:31;0.00;;;0.00;;
10096;SDS011;5087;42.662;23.466;2022-12-18T01:18:58;0.00;;;0.00;;
10096;SDS011;5087;42.662;23.466;2022-12-18T01:21:27;0.03;;;0.03;;
10096;SDS011;5087;42.662;23.466;2022-12-18T01:23:55;0.00;;;0.00;;
10096;SDS011;5087;42.662;23.466;2022-12-18T01:26:24;0.00;;;0.00;;
10096;SDS011;5087;42.662;23.466;2022-12-18T01:28:54;0.00;;;0.00;;
10096;SDS011;5087;42.662;23.466;2022-12-18T01:31:23;0.10;;;0.10;;
10096;SDS011;5087;42.662;23.466;2022-12-18T01:33:51;0.00;;;0.00;;
10096;SDS011;5087;42.662;23.466;2022-12-18T01:36:20;0.00;;;0.00;;
10096;SDS011;5087;42.662;23.466;2022-12-18T01:38:50;0.00;;;0.00;;
10096;SDS011;5087;42.662;23.466;2022-12-18T01:41:22;0.83;;;0.83;;
10096;SDS011;5087;42.662;23.466;2022-12-18T01:43:52;0.00;;;0.00;;
10096;SDS011;5087;42.662;23.466;2022-12-18T01:46:26;0.00;;;0.00;;
10096;SDS011;5087;42.662;23.466;2022-12-18T01:48:56;0.00;;;0.00;;
10096;SDS011;5087;42.662;23.466;2022-12-18T01:51:26;0.00;;;0.00;;
10096;SDS011;5087;42.662;23.466;2022-12-18T01:53:55;0.00;;;0.00;;
10096;SDS011;5087;42.662;23.466;2022-12-18T01:56:24;0.00;;;0.00;;
10096;SDS011;5087;42.662;23.466;2022-12-18T01:58:53;0.00;;;0.00;;
10096;SDS011;5087;42.662;23.466;2022-12-18T02:01:23;0.00;;;0.00;;
10096;SDS011;5087;42.662;23.466;2022-12-18T02:03:51;0.00;;;0.00;;
10096;SDS011;5087;42.662;23.466;2022-12-18T02:06:21;0.00;;;0.00;;
10096;SDS011;5087;42.662;23.466;2022-12-18T02:09:00;0.00;;;0.00;;
10096;SDS011;5087;42.662;23.466;2022-12-18T02:11:38;0.00;;;0.00;;
10096;SDS011;5087;42.662;23.466;2022-12-18T02:14:15;0.00;;;0.00;;
10096;SDS011;5087;42.662;23.466;2022-12-18T02:16:50;0.00;;;0.00;;
10096;SDS011;5087;42.662;23.466;2022-12-18T02:19:27;0.00;;;0.00;;
10096;SDS011;5087;42.662;23.466;2022-12-18T02:22:10;0.10;;;0.10;;
10096;SDS011;5087;42.662;23.466;2022-12-18T02:25:08;0.00;;;0.00;;
10096;SDS011;5087;42.662;23.466;2022-12-18T02:27:50;0.00;;;0.00;;
10096;SDS011;5087;42.662;23.466;2022-12-18T02:30:20;0.00;;;0.00;;
10096;SDS011;5087;42.662;23.466;2022-12-18T02:32:48;0.00;;;0.00;;
10096;SDS011;5087;42.662;23.466;2022-12-18T02:35:20;0.90;;;0.90;;
10096;SDS011;5087;42.662;23.466;2022-12-18T02:37:53;0.00;;;0.00;;
10096;SDS011;5087;42.662;23.466;2022-12-18T02:40:22;0.00;;;0.00;;
10096;SDS011;5087;42.662;23.466;2022-12-18T02:42:55;0.10;;;0.10;;
10096;SDS011;5087;42.662;23.466;2022-12-18T02:45:22;0.10;;;0.10;;
10096;SDS011;5087;42.662;23.466;2022-12-18T02:47:51;0.10;;;0.10;;
10096;SDS011;5087;42.662;23.466;2022-12-18T02:50:20;0.10;;;0.10;;
10096;SDS011;5087;42.662;23.466;2022-12-18T02:53:01;0.10;;;0.10;;
10096;SDS011;5087;42.662;23.466;2022-12-18T02:55:40;0.00;;;0.00;;
10096;SDS011;5087;42.662;23.466;2022-12-18T02:58:24;0.00;;;0.00;;
10096;SDS011;5087;42.662;23.466;2022-12-18T03:01:02;0.10;;;0.10;;
10096;SDS011;5087;42.662;23.466;2022-12-18T03:03:38;0.00;;;0.00;;
10096;SDS011;5087;42.662;23.466;2022-12-18T03:06:10;0.00;;;0.00;;
10096;SDS011;5087;42.662;23.466;2022-12-18T03:08:44;0.00;;;0.00;;
10096;SDS011;5087;42.662;23.466;2022-12-18T03:11:16;0.00;;;0.00;;
10096;SDS011;5087;42.662;23.466;2022-12-18T03:14:07;0.00;;;0.00;;
10096;SDS011;5087;42.662;23.466;2022-12-18T03:16:36;0.00;;;0.00;;
10096;SDS011;5087;42.662;23.466;2022-12-18T03:19:08;0.57;;;0.57;;
10096;SDS011;5087;42.662;23.466;2022-12-18T03:21:42;0.10;;;0.10;;
10096;SDS011;5087;42.662;23.466;2022-12-18T03:24:13;0.00;;;0.00;;
10096;SDS011;5087;42.662;23.466;2022-12-18T03:26:43;1.23;;;1.03;;
10096;SDS011;5087;42.662;23.466;2022-12-18T03:29:18;0.00;;;0.00;;
10096;SDS011;5087;42.662;23.466;2022-12-18T03:31:51;0.20;;;0.20;;
10096;SDS011;5087;42.662;23.466;2022-12-18T03:34:23;0.00;;;0.00;;
10096;SDS011;5087;42.662;23.466;2022-12-18T03:36:58;0.00;;;0.00;;
10096;SDS011;5087;42.662;23.466;2022-12-18T03:39:28;0.17;;;0.17;;
10096;SDS011;5087;42.662;23.466;2022-12-18T03:41:58;0.10;;;0.10;;
10096;SDS011;5087;42.662;23.466;2022-12-18T03:44:39;0.10;;;0.10;;
10096;SDS011;5087;42.662;23.466;2022-12-18T03:47:12;0.10;;;0.10;;
10096;SDS011;5087;42.662;23.466;2022-12-18T03:49:45;0.10;;;0.10;;
10096;SDS011;5087;42.662;23.466;2022-12-18T03:52:20;0.10;;;0.10;;
10096;SDS011;5087;42.662;23.466;2022-12-18T03:54:53;0.13;;;0.13;;
10096;SDS011;5087;42.662;23.466;2022-12-18T03:57:24;0.20;;;0.20;;
10096;SDS011;5087;42.662;23.466;2022-12-18T03:59:58;0.10;;;0.10;;
10096;SDS011;5087;42.662;23.466;2022-12-18T04:02:39;0.10;;;0.10;;
10096;SDS011;5087;42.662;23.466;2022-12-18T04:05:15;0.00;;;0.00;;
10096;SDS011;5087;42.662;23.466;2022-12-18T04:07:44;0.00;;;0.00;;
10096;SDS011;5087;42.662;23.466;2022-12-18T04:10:14;0.20;;;0.20;;
10096;SDS011;5087;42.662;23.466;2022-12-18T04:12:43;0.00;;;0.00;;
10096;SDS011;5087;42.662;23.466;2022-12-18T04:15:14;0.10;;;0.10;;
10096;SDS011;5087;42.662;23.466;2022-12-18T04:17:45;0.20;;;0.20;;
10096;SDS011;5087;42.662;23.466;2022-12-18T04:20:17;0.20;;;0.20;;
10096;SDS011;5087;42.662;23.466;2022-12-18T04:22:45;0.20;;;0.20;;
10096;SDS011;5087;42.662;23.466;2022-12-18T04:25:12;0.30;;;0.30;;
10096;SDS011;5087;42.662;23.466;2022-12-18T04:27:52;0.20;;;0.20;;
10096;SDS011;5087;42.662;23.466;2022-12-18T04:30:20;1.97;;;1.87;;
10096;SDS011;5087;42.662;23.466;2022-12-18T04:32:48;3.40;;;0.87;;
10096;SDS011;5087;42.662;23.466;2022-12-18T04:35:15;0.20;;;0.20;;
10096;SDS011;5087;42.662;23.466;2022-12-18T04:37:43;0.20;;;0.20;;
10096;SDS011;5087;42.662;23.466;2022-12-18T04:40:11;0.20;;;0.20;;
10096;SDS011;5087;42.662;23.466;2022-12-18T04:42:43;0.20;;;0.20;;
10096;SDS011;5087;42.662;23.466;2022-12-18T04:45:10;0.20;;;0.20;;
10096;SDS011;5087;42.662;23.466;2022-12-18T04:47:40;0.27;;;0.27;;
10096;SDS011;5087;42.662;23.466;2022-12-18T04:50:07;0.40;;;0.40;;
10096;SDS011;5087;42.662;23.466;2022-12-18T04:52:34;0.40;;;0.40;;
10096;SDS011;5087;42.662;23.466;2022-12-18T04:55:01;0.40;;;0.40;;
10096;SDS011;5087;42.662;23.466;2022-12-18T04:57:31;1.63;;;1.63;;
10096;SDS011;5087;42.662;23.466;2022-12-18T04:59:58;0.40;;;0.40;;
10096;SDS011;5087;42.662;23.466;2022-12-18T05:02:25;0.40;;;0.40;;
10096;SDS011;5087;42.662;23.466;2022-12-18T05:04:54;0.40;;;0.40;;
10096;SDS011;5087;42.662;23.466;2022-12-18T05:07:21;0.40;;;0.40;;
10096;SDS011;5087;42.662;23.466;2022-12-18T05:09:48;0.50;;;0.50;;
10096;SDS011;5087;42.662;23.466;2022-12-18T05:12:15;0.50;;;0.50;;
10096;SDS011;5087;42.662;23.466;2022-12-18T05:14:42;0.50;;;0.50;;
10096;SDS011;5087;42.662;23.466;2022-12-18T05:17:09;0.77;;;0.77;;
10096;SDS011;5087;42.662;23.466;2022-12-18T05:19:37;0.70;;;0.70;;
10096;SDS011;5087;42.662;23.466;2022-12-18T05:22:10;0.60;;;0.60;;
10096;SDS011;5087;42.662;23.466;2022-12-18T05:24:37;0.70;;;0.70;;
10096;SDS011;5087;42.662;23.466;2022-12-18T05:27:04;0.93;;;0.93;;
10096;SDS011;5087;42.662;23.466;2022-12-18T05:29:31;0.80;;;0.80;;
10096;SDS011;5087;42.662;23.466;2022-12-18T05:31:59;0.80;;;0.80;;
10096;SDS011;5087;42.662;23.466;2022-12-18T05:34:26;1.67;;;1.63;;
10096;SDS011;5087;42.662;23.466;2022-12-18T05:36:53;0.83;;;0.83;;
10096;SDS011;5087;42.662;23.466;2022-12-18T05:39:22;0.90;;;0.90;;
10096;SDS011;5087;42.662;23.466;2022-12-18T05:41:49;1.00;;;1.00;;
10096;SDS011;5087;42.662;23.466;2022-12-18T05:44:17;0.90;;;0.90;;
10096;SDS011;5087;42.662;23.466;2022-12-18T05:46:44;0.90;;;0.90;;
10096;SDS011;5087;42.662;23.466;2022-12-18T05:49:11;0.80;;;0.80;;
10096;SDS011;5087;42.662;23.466;2022-12-18T05:51:38;0.70;;;0.70;;
10096;SDS011;5087;42.662;23.466;2022-12-18T05:54:05;0.70;;;0.70;;
10096;SDS011;5087;42.662;23.466;2022-12-18T05:56:33;0.60;;;0.60;;
10096;SDS011;5087;42.662;23.466;2022-12-18T05:59:01;1.10;;;1.10;;
10096;SDS011;5087;42.662;23.466;2022-12-18T06:01:28;0.70;;;0.70;;
10096;SDS011;5087;42.662;23.466;2022-12-18T06:03:55;1.00;;;1.00;;
10096;SDS011;5087;42.662;23.466;2022-12-18T06:06:23;1.17;;;1.17;;
10096;SDS011;5087;42.662;23.466;2022-12-18T06:08:52;1.40;;;1.40;;
10096;SDS011;5087;42.662;23.466;2022-12-18T06:11:21;1.10;;;1.10;;
10096;SDS011;5087;42.662;23.466;2022-12-18T06:13:51;2.90;;;2.20;;
10096;SDS011;5087;42.662;23.466;2022-12-18T06:16:19;1.27;;;1.27;;
10096;SDS011;5087;42.662;23.466;2022-12-18T06:18:47;4.53;;;4.33;;
10096;SDS011;5087;42.662;23.466;2022-12-18T06:21:14;1.33;;;1.33;;
10096;SDS011;5087;42.662;23.466;2022-12-18T06:23:41;1.23;;;1.23;;
10096;SDS011;5087;42.662;23.466;2022-12-18T06:26:09;1.33;;;1.33;;
10096;SDS011;5087;42.662;23.466;2022-12-18T06:28:38;1.60;;;1.60;;
10096;SDS011;5087;42.662;23.466;2022-12-18T06:31:07;1.30;;;1.30;;
10096;SDS011;5087;42.662;23.466;2022-12-18T06:33:35;1.63;;;1.63;;
10096;SDS011;5087;42.662;23.466;2022-12-18T06:36:03;1.30;;;1.30;;
10096;SDS011;5087;42.662;23.466;2022-12-18T06:38:32;1.50;;;1.50;;
10096;SDS011;5087;42.662;23.466;2022-12-18T06:41:00;2.10;;;2.10;;
10096;SDS011;5087;42.662;23.466;2022-12-18T06:43:27;1.40;;;1.40;;
10096;SDS011;5087;42.662;23.466;2022-12-18T06:45:57;1.30;;;1.30;;
10096;SDS011;5087;42.662;23.466;2022-12-18T06:48:27;1.50;;;1.50;;
10096;SDS011;5087;42.662;23.466;2022-12-18T06:50:54;1.40;;;1.40;;
10096;SDS011;5087;42.662;23.466;2022-12-18T06:53:22;1.40;;;1.40;;
10096;SDS011;5087;42.662;23.466;2022-12-18T06:55:50;2.70;;;2.60;;
10096;SDS011;5087;42.662;23.466;2022-12-18T06:58:17;1.63;;;1.63;;
10096;SDS011;5087;42.662;23.466;2022-12-18T07:00:44;1.53;;;1.53;;
10096;SDS011;5087;42.662;23.466;2022-12-18T07:03:11;1.50;;;1.50;;
10096;SDS011;5087;42.662;23.466;2022-12-18T07:05:42;1.40;;;1.40;;
10096;SDS011;5087;42.662;23.466;2022-12-18T07:08:12;1.50;;;1.50;;
10096;SDS011;5087;42.662;23.466;2022-12-18T07:10:43;1.50;;;1.50;;
10096;SDS011;5087;42.662;23.466;2022-12-18T07:13:10;1.60;;;1.60;;
10096;SDS011;5087;42.662;23.466;2022-12-18T07:15:37;1.67;;;1.67;;
10096;SDS011;5087;42.662;23.466;2022-12-18T07:18:05;1.70;;;1.70;;
10096;SDS011;5087;42.662;23.466;2022-12-18T07:20:32;2.00;;;2.00;;
10096;SDS011;5087;42.662;23.466;2022-12-18T07:23:02;2.00;;;2.00;;
10096;SDS011;5087;42.662;23.466;2022-12-18T07:25:30;2.00;;;2.00;;
10096;SDS011;5087;42.662;23.466;2022-12-18T07:27:59;2.20;;;2.20;;
10096;SDS011;5087;42.662;23.466;2022-12-18T07:30:26;4.33;;;4.17;;
10096;SDS011;5087;42.662;23.466;2022-12-18T07:32:54;2.40;;;2.40;;
10096;SDS011;5087;42.662;23.466;2022-12-18T07:35:21;2.70;;;2.70;;
10096;SDS011;5087;42.662;23.466;2022-12-18T07:37:48;2.43;;;2.43;;
10096;SDS011;5087;42.662;23.466;2022-12-18T07:40:17;2.27;;;2.27;;
10096;SDS011;5087;42.662;23.466;2022-12-18T07:42:45;2.30;;;2.30;;
10096;SDS011;5087;42.662;23.466;2022-12-18T07:45:13;2.20;;;2.20;;
10096;SDS011;5087;42.662;23.466;2022-12-18T07:47:41;3.33;;;3.27;;
10096;SDS011;5087;42.662;23.466;2022-12-18T07:50:08;2.37;;;2.37;;
10096;SDS011;5087;42.662;23.466;2022-12-18T07:52:35;2.87;;;2.77;;
10096;SDS011;5087;42.662;23.466;2022-12-18T07:55:03;2.20;;;2.20;;
10096;SDS011;5087;42.662;23.466;2022-12-18T07:57:32;1.90;;;1.90;;
10096;SDS011;5087;42.662;23.466;2022-12-18T08:00:00;1.90;;;1.90;;
10096;SDS011;5087;42.662;23.466;2022-12-18T08:02:27;2.10;;;2.10;;
10096;SDS011;5087;42.662;23.466;2022-12-18T08:04:57;2.20;;;2.20;;
10096;SDS011;5087;42.662;23.466;2022-12-18T08:07:24;2.30;;;2.30;;
10096;SDS011;5087;42.662;23.466;2022-12-18T08:09:52;1.90;;;1.90;;
10096;SDS011;5087;42.662;23.466;2022-12-18T08:12:19;1.80;;;1.80;;
10096;SDS011;5087;42.662;23.466;2022-12-18T08:14:47;1.97;;;1.97;;
10096;SDS011;5087;42.662;23.466;2022-12-18T08:17:15;2.23;;;2.13;;
10096;SDS011;5087;42.662;23.466;2022-12-18T08:19:43;1.77;;;1.77;;
10096;SDS011;5087;42.662;23.466;2022-12-18T08:22:12;1.93;;;1.93;;
10096;SDS011;5087;42.662;23.466;2022-12-18T08:24:39;1.50;;;1.50;;
10096;SDS011;5087;42.662;23.466;2022-12-18T08:27:10;1.30;;;1.30;;
10096;SDS011;5087;42.662;23.466;2022-12-18T08:29:41;1.40;;;1.40;;
10096;SDS011;5087;42.662;23.466;2022-12-18T08:32:11;1.50;;;1.50;;
10096;SDS011;5087;42.662;23.466;2022-12-18T08:34:40;1.30;;;1.30;;
10096;SDS011;5087;42.662;23.466;2022-12-18T08:37:07;1.50;;;1.50;;
10096;SDS011;5087;42.662;23.466;2022-12-18T08:39:37;1.60;;;1.60;;
10096;SDS011;5087;42.662;23.466;2022-12-18T08:42:06;1.43;;;1.43;;
10096;SDS011;5087;42.662;23.466;2022-12-18T08:44:51;1.30;;;1.30;;
10096;SDS011;5087;42.662;23.466;2022-12-18T08:50:14;1.87;;;1.87;;
10096;SDS011;5087;42.662;23.466;2022-12-18T08:52:42;1.67;;;1.67;;
10096;SDS011;5087;42.662;23.466;2022-12-18T08:55:14;2.57;;;2.47;;
10096;SDS011;5087;42.662;23.466;2022-12-18T08:57:47;1.90;;;1.90;;
10096;SDS011;5087;42.662;23.466;2022-12-18T09:00:15;2.00;;;2.00;;
10096;SDS011;5087;42.662;23.466;2022-12-18T09:02:44;2.53;;;2.53;;
10096;SDS011;5087;42.662;23.466;2022-12-18T09:05:30;2.30;;;2.30;;
10096;SDS011;5087;42.662;23.466;2022-12-18T09:08:03;2.30;;;2.30;;
10096;SDS011;5087;42.662;23.466;2022-12-18T09:10:43;2.40;;;2.40;;
10096;SDS011;5087;42.662;23.466;2022-12-18T09:13:14;2.30;;;2.30;;
10096;SDS011;5087;42.662;23.466;2022-12-18T09:15:42;2.70;;;2.70;;
10096;SDS011;5087;42.662;23.466;2022-12-18T09:18:20;3.33;;;3.33;;
10096;SDS011;5087;42.662;23.466;2022-12-18T09:20:48;3.87;;;3.73;;
10096;SDS011;5087;42.662;23.466;2022-12-18T09:23:17;3.20;;;3.20;;
10096;SDS011;5087;42.662;23.466;2022-12-18T09:25:45;3.20;;;3.20;;
10096;SDS011;5087;42.662;23.466;2022-12-18T09:28:13;3.50;;;3.40;;
10096;SDS011;5087;42.662;23.466;2022-12-18T09:30:43;3.10;;;3.10;;
10096;SDS011;5087;42.662;23.466;2022-12-18T09:33:13;3.20;;;3.20;;
10096;SDS011;5087;42.662;23.466;2022-12-18T09:35:45;3.10;;;3.10;;
10096;SDS011;5087;42.662;23.466;2022-12-18T09:38:19;2.90;;;2.90;;
10096;SDS011;5087;42.662;23.466;2022-12-18T09:40:50;3.20;;;3.20;;
10096;SDS011;5087;42.662;23.466;2022-12-18T09:43:22;3.40;;;3.40;;
10096;SDS011;5087;42.662;23.466;2022-12-18T09:45:53;3.30;;;3.30;;
10096;SDS011;5087;42.662;23.466;2022-12-18T09:48:26;3.77;;;3.77;;
10096;SDS011;5087;42.662;23.466;2022-12-18T09:50:59;4.00;;;3.90;;
10096;SDS011;5087;42.662;23.466;2022-12-18T09:53:34;3.37;;;3.37;;
10096;SDS011;5087;42.662;23.466;2022-12-18T09:56:10;4.00;;;3.90;;
10096;SDS011;5087;42.662;23.466;2022-12-18T09:58:43;4.13;;;4.03;;
10096;SDS011;5087;42.662;23.466;2022-12-18T10:01:18;3.80;;;3.80;;
10096;SDS011;5087;42.662;23.466;2022-12-18T10:03:49;3.87;;;3.83;;
10096;SDS011;5087;42.662;23.466;2022-12-18T10:06:20;3.70;;;3.70;;
10096;SDS011;5087;42.662;23.466;2022-12-18T10:08:51;4.30;;;4.20;;
10096;SDS011;5087;42.662;23.466;2022-12-18T10:11:28;4.03;;;3.93;;
10096;SDS011;5087;42.662;23.466;2022-12-18T10:14:07;4.10;;;4.00;;
10096;SDS011;5087;42.662;23.466;2022-12-18T10:16:47;4.70;;;4.60;;
10096;SDS011;5087;42.662;23.466;2022-12-18T10:19:27;4.43;;;4.33;;
10096;SDS011;5087;42.662;23.466;2022-12-18T10:22:08;4.30;;;4.20;;
10096;SDS011;5087;42.662;23.466;2022-12-18T10:24:45;4.77;;;4.67;;
10096;SDS011;5087;42.662;23.466;2022-12-18T10:27:21;4.70;;;4.60;;
10096;SDS011;5087;42.662;23.466;2022-12-18T10:29:50;4.50;;;4.40;;
10096;SDS011;5087;42.662;23.466;2022-12-18T10:32:18;4.80;;;4.70;;
10096;SDS011;5087;42.662;23.466;2022-12-18T10:34:47;4.60;;;4.50;;
10096;SDS011;5087;42.662;23.466;2022-12-18T10:37:17;4.63;;;4.53;;
10096;SDS011;5087;42.662;23.466;2022-12-18T10:40:04;4.20;;;4.10;;
10096;SDS011;5087;42.662;23.466;2022-12-18T10:42:35;4.10;;;4.00;;
10096;SDS011;5087;42.662;23.466;2022-12-18T10:45:03;4.23;;;4.13;;
10096;SDS011;5087;42.662;23.466;2022-12-18T10:47:35;3.77;;;3.77;;
10096;SDS011;5087;42.662;23.466;2022-12-18T10:50:10;3.87;;;3.87;;
10096;SDS011;5087;42.662;23.466;2022-12-18T10:52:53;4.00;;;3.90;;
10096;SDS011;5087;42.662;23.466;2022-12-18T10:55:30;3.97;;;3.87;;
10096;SDS011;5087;42.662;23.466;2022-12-18T10:58:13;3.80;;;3.80;;
10096;SDS011;5087;42.662;23.466;2022-12-18T11:01:01;4.70;;;4.60;;
10096;SDS011;5087;42.662;23.466;2022-12-18T11:03:33;3.63;;;3.63;;
10096;SDS011;5087;42.662;23.466;2022-12-18T11:06:03;4.00;;;3.90;;
10096;SDS011;5087;42.662;23.466;2022-12-18T11:08:36;3.93;;;3.90;;
10096;SDS011;5087;42.662;23.466;2022-12-18T11:11:06;3.80;;;3.80;;
10096;SDS011;5087;42.662;23.466;2022-12-18T11:13:42;3.57;;;3.57;;
10096;SDS011;5087;42.662;23.466;2022-12-18T11:16:24;3.93;;;3.83;;
10096;SDS011;5087;42.662;23.466;2022-12-18T11:18:51;3.57;;;3.57;;
10096;SDS011;5087;42.662;23.466;2022-12-18T11:21:18;3.63;;;3.63;;
10096;SDS011;5087;42.662;23.466;2022-12-18T11:23:48;3.13;;;3.13;;
10096;SDS011;5087;42.662;23.466;2022-12-18T11:26:17;3.73;;;3.63;;
10096;SDS011;5087;42.662;23.466;2022-12-18T11:28:46;2.90;;;2.90;;
10096;SDS011;5087;42.662;23.466;2022-12-18T11:31:20;2.40;;;2.40;;
10096;SDS011;5087;42.662;23.466;2022-12-18T11:33:51;1.90;;;1.90;;
10096;SDS011;5087;42.662;23.466;2022-12-18T11:36:24;1.90;;;1.90;;
10096;SDS011;5087;42.662;23.466;2022-12-18T11:38:59;1.80;;;1.80;;
10096;SDS011;5087;42.662;23.466;2022-12-18T11:41:34;1.70;;;1.70;;
10096;SDS011;5087;42.662;23.466;2022-12-18T11:44:26;1.70;;;1.70;;
10096;SDS011;5087;42.662;23.466;2022-12-18T11:46:59;1.80;;;1.80;;
10096;SDS011;5087;42.662;23.466;2022-12-18T11:49:32;1.90;;;1.90;;
10096;SDS011;5087;42.662;23.466;2022-12-18T11:52:01;2.53;;;2.30;;
10096;SDS011;5087;42.662;23.466;2022-12-18T11:54:45;2.00;;;2.00;;
10096;SDS011;5087;42.662;23.466;2022-12-18T11:57:14;3.20;;;2.70;;
10096;SDS011;5087;42.662;23.466;2022-12-18T11:59:50;2.20;;;2.20;;
10096;SDS011;5087;42.662;23.466;2022-12-18T12:02:32;1.80;;;1.80;;
10096;SDS011;5087;42.662;23.466;2022-12-18T12:05:37;1.80;;;1.80;;
10096;SDS011;5087;42.662;23.466;2022-12-18T12:08:16;1.90;;;1.90;;
10096;SDS011;5087;42.662;23.466;2022-12-18T12:10:52;2.07;;;2.07;;
10096;SDS011;5087;42.662;23.466;2022-12-18T12:13:30;1.80;;;1.80;;
10096;SDS011;5087;42.662;23.466;2022-12-18T12:16:10;2.10;;;2.10;;
10096;SDS011;5087;42.662;23.466;2022-12-18T12:18:49;1.90;;;1.90;;
10096;SDS011;5087;42.662;23.466;2022-12-18T12:21:28;1.93;;;1.93;;
10096;SDS011;5087;42.662;23.466;2022-12-18T12:24:04;2.00;;;2.00;;
10096;SDS011;5087;42.662;23.466;2022-12-18T12:26:42;2.40;;;2.40;;
10096;SDS011;5087;42.662;23.466;2022-12-18T12:29:20;2.10;;;2.10;;
10096;SDS011;5087;42.662;23.466;2022-12-18T12:32:04;2.03;;;2.03;;
10096;SDS011;5087;42.662;23.466;2022-12-18T12:34:48;2.03;;;2.03;;
10096;SDS011;5087;42.662;23.466;2022-12-18T12:37:30;2.00;;;2.00;;
10096;SDS011;5087;42.662;23.466;2022-12-18T12:40:07;2.07;;;2.07;;
10096;SDS011;5087;42.662;23.466;2022-12-18T12:42:42;2.30;;;2.30;;
10096;SDS011;5087;42.662;23.466;2022-12-18T12:45:34;2.90;;;2.80;;
10096;SDS011;5087;42.662;23.466;2022-12-18T12:48:05;1.80;;;1.80;;
10096;SDS011;5087;42.662;23.466;2022-12-18T12:50:39;1.80;;;1.80;;
10096;SDS011;5087;42.662;23.466;2022-12-18T12:53:09;2.10;;;2.10;;
10096;SDS011;5087;42.662;23.466;2022-12-18T12:55:50;1.90;;;1.90;;
10096;SDS011;5087;42.662;23.466;2022-12-18T12:58:22;2.30;;;2.30;;
10096;SDS011;5087;42.662;23.466;2022-12-18T13:00:58;1.80;;;1.80;;
10096;SDS011;5087;42.662;23.466;2022-12-18T13:03:36;1.90;;;1.90;;
10096;SDS011;5087;42.662;23.466;2022-12-18T13:06:16;2.30;;;2.30;;
10096;SDS011;5087;42.662;23.466;2022-12-18T13:08:54;1.90;;;1.90;;
10096;SDS011;5087;42.662;23.466;2022-12-18T13:11:30;2.27;;;2.27;;
10096;SDS011;5087;42.662;23.466;2022-12-18T13:14:23;2.00;;;2.00;;
10096;SDS011;5087;42.662;23.466;2022-12-18T13:20:07;1.70;;;1.70;;
10096;SDS011;5087;42.662;23.466;2022-12-18T13:22:38;2.70;;;2.47;;
10096;SDS011;5087;42.662;23.466;2022-12-18T13:28:08;1.83;;;1.83;;
10096;SDS011;5087;42.662;23.466;2022-12-18T13:30:45;1.80;;;1.80;;
10096;SDS011;5087;42.662;23.466;2022-12-18T13:36:26;2.57;;;2.57;;
10096;SDS011;5087;42.662;23.466;2022-12-18T13:45:36;2.30;;;2.20;;
10096;SDS011;5087;42.662;23.466;2022-12-18T13:48:20;1.90;;;1.90;;
10096;SDS011;5087;42.662;23.466;2022-12-18T13:50:53;1.83;;;1.83;;
10096;SDS011;5087;42.662;23.466;2022-12-18T13:53:26;1.90;;;1.90;;
10096;SDS011;5087;42.662;23.466;2022-12-18T13:55:56;1.70;;;1.70;;
10096;SDS011;5087;42.662;23.466;2022-12-18T13:58:24;1.90;;;1.90;;
10096;SDS011;5087;42.662;23.466;2022-12-18T14:00:54;2.00;;;2.00;;
10096;SDS011;5087;42.662;23.466;2022-12-18T14:03:24;1.70;;;1.70;;
10096;SDS011;5087;42.662;23.466;2022-12-18T14:05:54;2.00;;;2.00;;
10096;SDS011;5087;42.662;23.466;2022-12-18T14:08:32;2.20;;;2.20;;
10096;SDS011;5087;42.662;23.466;2022-12-18T14:11:04;2.00;;;2.00;;
10096;SDS011;5087;42.662;23.466;2022-12-18T14:13:35;1.90;;;1.90;;
10096;SDS011;5087;42.662;23.466;2022-12-18T14:16:20;1.90;;;1.90;;
10096;SDS011;5087;42.662;23.466;2022-12-18T14:18:50;1.90;;;1.90;;
10096;SDS011;5087;42.662;23.466;2022-12-18T14:21:26;2.00;;;2.00;;
10096;SDS011;5087;42.662;23.466;2022-12-18T14:24:12;2.10;;;2.10;;
10096;SDS011;5087;42.662;23.466;2022-12-18T14:26:45;2.67;;;2.67;;
10096;SDS011;5087;42.662;23.466;2022-12-18T14:29:18;2.13;;;2.13;;
10096;SDS011;5087;42.662;23.466;2022-12-18T14:34:39;1.90;;;1.90;;
10096;SDS011;5087;42.662;23.466;2022-12-18T14:37:09;1.90;;;1.90;;
10096;SDS011;5087;42.662;23.466;2022-12-18T14:39:37;2.00;;;2.00;;
10096;SDS011;5087;42.662;23.466;2022-12-18T14:42:09;1.80;;;1.80;;
10096;SDS011;5087;42.662;23.466;2022-12-18T14:44:37;2.33;;;2.30;;
10096;SDS011;5087;42.662;23.466;2022-12-18T14:47:12;3.33;;;3.23;;
10096;SDS011;5087;42.662;23.466;2022-12-18T14:49:42;2.20;;;2.20;;
10096;SDS011;5087;42.662;23.466;2022-12-18T14:52:16;2.10;;;2.10;;
10096;SDS011;5087;42.662;23.466;2022-12-18T14:54:50;1.90;;;1.90;;
10096;SDS011;5087;42.662;23.466;2022-12-18T14:57:20;1.90;;;1.90;;
10096;SDS011;5087;42.662;23.466;2022-12-18T14:59:49;2.17;;;2.17;;
10096;SDS011;5087;42.662;23.466;2022-12-18T15:02:19;2.13;;;2.13;;
10096;SDS011;5087;42.662;23.466;2022-12-18T15:05:00;2.20;;;2.20;;
10096;SDS011;5087;42.662;23.466;2022-12-18T15:07:39;2.00;;;2.00;;
10096;SDS011;5087;42.662;23.466;2022-12-18T15:10:11;3.80;;;3.00;;
10096;SDS011;5087;42.662;23.466;2022-12-18T15:12:50;2.20;;;2.20;;
10096;SDS011;5087;42.662;23.466;2022-12-18T15:15:46;2.20;;;2.20;;
10096;SDS011;5087;42.662;23.466;2022-12-18T15:18:15;2.00;;;2.00;;
10096;SDS011;5087;42.662;23.466;2022-12-18T15:20:47;2.10;;;2.10;;
10096;SDS011;5087;42.662;23.466;2022-12-18T15:23:16;2.30;;;2.30;;
10096;SDS011;5087;42.662;23.466;2022-12-18T15:25:46;2.20;;;2.20;;
10096;SDS011;5087;42.662;23.466;2022-12-18T15:28:23;2.30;;;2.30;;
10096;SDS011;5087;42.662;23.466;2022-12-18T15:31:01;2.40;;;2.40;;
10096;SDS011;5087;42.662;23.466;2022-12-18T15:33:34;2.40;;;2.40;;
10096;SDS011;5087;42.662;23.466;2022-12-18T15:36:09;2.30;;;2.30;;
10096;SDS011;5087;42.662;23.466;2022-12-18T15:38:37;2.10;;;2.10;;